Fairwood, Washington
Current Conditions -  °F | °C
As of 11:53 AM on Sunday 23 Nov 2014 (Local Time) from KRNT Reporting Station
Overcast Overcast  
Wind Chill: 52°   Ceiling: 1800
Heat Index: 52°   Visibility: 10mi
Dew Point: 47°   Wind: 10mph
Humidity: 83%   Direction: 170°S
Pressure: 30.12"   Gusts: NA
Location:  47.4414°N, 122.121°W
Report Text: KRNT 231953Z 17009KT 10SM OVC018 11/08 A3012 RMK AO2 SLP204 T01110083
Loading
Personal Weather Stations






























Interactive Weather Map New forecast layout! Learn more

10-Day Weather Forecast

Advertisements
Track Severe Weather on mobile